Map

Track Data

SID SEASON NUMBER BASIN SUBBASIN NAME ISO_TIME NATURE LAT LON WMO_WIND WMO_PRES WMO_AGENCY TRACK_TYPE DIST2LAND LANDFALL IFLAG USA_AGENCY USA_ATCF_ID USA_LAT USA_LON USA_RECORD USA_STATUS USA_WIND USA_PRES USA_SSHS USA_R34_NE USA_R34_SE USA_R34_SW USA_R34_NW USA_R50_NE USA_R50_SE USA_R50_SW USA_R50_NW USA_R64_NE USA_R64_SE USA_R64_SW USA_R64_NW USA_POCI USA_ROCI USA_RMW USA_EYE TOKYO_LAT TOKYO_LON TOKYO_GRADE TOKYO_WIND TOKYO_PRES TOKYO_R50_DIR TOKYO_R50_LONG TOKYO_R50_SHORT TOKYO_R30_DIR TOKYO_R30_LONG TOKYO_R30_SHORT TOKYO_LAND CMA_LAT CMA_LON CMA_CAT CMA_WIND CMA_PRES HKO_LAT HKO_LON HKO_CAT HKO_WIND HKO_PRES NEWDELHI_LAT NEWDELHI_LON NEWDELHI_GRADE NEWDELHI_WIND NEWDELHI_PRES NEWDELHI_CI NEWDELHI_DP NEWDELHI_POCI REUNION_LAT REUNION_LON REUNION_TYPE REUNION_WIND REUNION_PRES REUNION_TNUM REUNION_CI REUNION_RMW REUNION_R34_NE REUNION_R34_SE REUNION_R34_SW REUNION_R34_NW REUNION_R50_NE REUNION_R50_SE REUNION_R50_SW REUNION_R50_NW REUNION_R64_NE REUNION_R64_SE REUNION_R64_SW REUNION_R64_NW BOM_LAT BOM_LON BOM_TYPE BOM_WIND BOM_PRES BOM_TNUM BOM_CI BOM_RMW BOM_R34_NE BOM_R34_SE BOM_R34_SW BOM_R34_NW BOM_R50_NE BOM_R50_SE BOM_R50_SW BOM_R50_NW BOM_R64_NE BOM_R64_SE BOM_R64_SW BOM_R64_NW BOM_ROCI BOM_POCI BOM_EYE BOM_POS_METHOD BOM_PRES_METHOD NADI_LAT NADI_LON NADI_CAT NADI_WIND NADI_PRES WELLINGTON_LAT WELLINGTON_LON WELLINGTON_WIND WELLINGTON_PRES DS824_LAT DS824_LON DS824_STAGE DS824_WIND DS824_PRES TD9636_LAT TD9636_LON TD9636_STAGE TD9636_WIND TD9636_PRES TD9635_LAT TD9635_LON TD9635_WIND TD9635_PRES TD9635_ROCI NEUMANN_LAT NEUMANN_LON NEUMANN_CLASS NEUMANN_WIND NEUMANN_PRES MLC_LAT MLC_LON MLC_CLASS MLC_WIND MLC_PRES USA_GUST BOM_GUST BOM_GUST_PER REUNION_GUST REUNION_GUST_PER USA_SEAHGT USA_SEARAD_NE USA_SEARAD_SE USA_SEARAD_SW USA_SEARAD_NW STORM_SPEED STORM_DIR
1889255N16301 1889 23 NA NA NOT_NAMED 1889-09-12 00:00:00 TS 15.7000 -59.5000 35 hurdat_atl main 582 568 O_____________ hurdat_atl AL061889 15.7000 -59.5000 TS 35 0 11 270
1889255N16301 1889 23 NA NA NOT_NAMED 1889-09-12 03:00:00 TS 15.6978 -60.0900 main 568 560 P_____________ AL061889 15.6978 -60.0900 TS 35 0 12 270
1889255N16301 1889 23 NA CS NOT_NAMED 1889-09-12 06:00:00 TS 15.7000 -60.7000 35 hurdat_atl main 560 536 O_____________ hurdat_atl AL061889 15.7000 -60.7000 TS 35 0 12 270
1889255N16301 1889 23 NA CS NOT_NAMED 1889-09-12 09:00:00 TS 15.7074 -61.3424 main 536 474 P_____________ AL061889 15.7074 -61.3424 TS 37 0 13 270
1889255N16301 1889 23 NA CS NOT_NAMED 1889-09-12 12:00:00 TS 15.7000 -62.0000 40 hurdat_atl main 474 424 O_____________ hurdat_atl AL061889 15.7000 -62.0000 TS 40 0 13 267
1889255N16301 1889 23 NA CS NOT_NAMED 1889-09-12 15:00:00 TS 15.6499 -62.6576 main 424 378 P_____________ AL061889 15.6499 -62.6576 TS 40 0 13 265
1889255N16301 1889 23 NA CS NOT_NAMED 1889-09-12 18:00:00 TS 15.6000 -63.3000 40 hurdat_atl main 378 336 O_____________ hurdat_atl AL061889 15.6000 -63.3000 TS 40 0 12 267
1889255N16301 1889 23 NA CS NOT_NAMED 1889-09-12 21:00:00 TS 15.5921 -63.8924 main 336 302 P_____________ AL061889 15.5921 -63.8924 TS 42 0 12 270
1889255N16301 1889 23 NA CS NOT_NAMED 1889-09-13 00:00:00 TS 15.6000 -64.5000 45 hurdat_atl main 302 278 O_____________ hurdat_atl AL061889 15.6000 -64.5000 TS 45 0 12 270
1889255N16301 1889 23 NA CS NOT_NAMED 1889-09-13 03:00:00 TS 15.5923 -65.1701 main 276 259 P_____________ AL061889 15.5923 -65.1701 TS 45 0 13 270
1889255N16301 1889 23 NA CS NOT_NAMED 1889-09-13 06:00:00 TS 15.6000 -65.9000 45 hurdat_atl main 259 257 O_____________ hurdat_atl AL061889 15.6000 -65.9000 TS 45 0 15 272
1889255N16301 1889 23 NA CS NOT_NAMED 1889-09-13 09:00:00 TS 15.6501 -66.7074 main 247 246 P_____________ AL061889 15.6501 -66.7074 TS 47 0 15 274
1889255N16301 1889 23 NA CS NOT_NAMED 1889-09-13 12:00:00 TS 15.7000 -67.5000 50 hurdat_atl main 248 248 O_____________ hurdat_atl AL061889 15.7000 -67.5000 TS 50 0 14 272
1889255N16301 1889 23 NA CS NOT_NAMED 1889-09-13 15:00:00 TS 15.7068 -68.1426 main 264 264 P_____________ AL061889 15.7068 -68.1426 TS 50 0 13 270
1889255N16301 1889 23 NA CS NOT_NAMED 1889-09-13 18:00:00 TS 15.7000 -68.8000 50 hurdat_atl main 279 279 O_____________ hurdat_atl AL061889 15.7000 -68.8000 TS 50 0 14 269
1889255N16301 1889 23 NA CS NOT_NAMED 1889-09-13 21:00:00 TS 15.6851 -69.6277 main 286 233 P_____________ AL061889 15.6851 -69.6277 TS 50 0 16 270
1889255N16301 1889 23 NA CS NOT_NAMED 1889-09-14 00:00:00 TS 15.7000 -70.5000 50 hurdat_atl main 233 201 O_____________ hurdat_atl AL061889 15.7000 -70.5000 TS 50 0 17 274
1889255N16301 1889 23 NA CS NOT_NAMED 1889-09-14 03:00:00 TS 15.7924 -71.3373 main 201 194 P_____________ AL061889 15.7924 -71.3373 TS 50 0 16 277
1889255N16301 1889 23 NA CS NOT_NAMED 1889-09-14 06:00:00 TS 15.9000 -72.1000 50 hurdat_atl main 204 204 O_____________ hurdat_atl AL061889 15.9000 -72.1000 TS 50 0 14 277
1889255N16301 1889 23 NA CS NOT_NAMED 1889-09-14 09:00:00 TS 15.9497 -72.7526 main 241 230 P_____________ AL061889 15.9497 -72.7526 TS 50 0 12 275
1889255N16301 1889 23 NA CS NOT_NAMED 1889-09-14 12:00:00 TS 16.0000 -73.3000 50 hurdat_atl main 230 212 O_____________ hurdat_atl AL061889 16.0000 -73.3000 TS 50 0 10 279
1889255N16301 1889 23 NA CS NOT_NAMED 1889-09-14 15:00:00 TS 16.0994 -73.7275 main 212 201 P_____________ AL061889 16.0994 -73.7275 TS 50 0 9 283
1889255N16301 1889 23 NA CS NOT_NAMED 1889-09-14 18:00:00 TS 16.2000 -74.2000 50 hurdat_atl main 203 203 O_____________ hurdat_atl AL061889 16.2000 -74.2000 TS 50 0 12 278
1889255N16301 1889 23 NA CS NOT_NAMED 1889-09-14 21:00:00 TS 16.2581 -74.9500 main 219 186 P_____________ AL061889 16.2581 -74.9500 TS 50 0 14 274
1889255N16301 1889 23 NA CS NOT_NAMED 1889-09-15 00:00:00 TS 16.3000 -75.7000 50 hurdat_atl main 186 179 O_____________ hurdat_atl AL061889 16.3000 -75.7000 TS 50 0 12 274
1889255N16301 1889 23 NA CS NOT_NAMED 1889-09-15 03:00:00 TS 16.3344 -76.1802 main 179 158 P_____________ AL061889 16.3344 -76.1802 TS 50 0 9 277
1889255N16301 1889 23 NA CS NOT_NAMED 1889-09-15 06:00:00 TS 16.4000 -76.6000 50 hurdat_atl main 158 134 O_____________ hurdat_atl AL061889 16.4000 -76.6000 TS 50 0 9 282
1889255N16301 1889 23 NA CS NOT_NAMED 1889-09-15 09:00:00 TS 16.5273 -77.1201 main 134 119 P_____________ AL061889 16.5273 -77.1201 TS 50 0 11 286
1889255N16301 1889 23 NA CS NOT_NAMED 1889-09-15 12:00:00 TS 16.7000 -77.7000 50 hurdat_atl main 123 123 O_____________ hurdat_atl AL061889 16.7000 -77.7000 TS 50 0 13 287
1889255N16301 1889 23 NA CS NOT_NAMED 1889-09-15 15:00:00 TS 16.9003 -78.3798 main 134 134 P_____________ AL061889 16.9003 -78.3798 TS 50 0 13 288
1889255N16301 1889 23 NA CS NOT_NAMED 1889-09-15 18:00:00 TS 17.1000 -79.0000 50 hurdat_atl main 138 134 O_____________ hurdat_atl AL061889 17.1000 -79.0000 TS 50 0 10 291
1889255N16301 1889 23 NA CS NOT_NAMED 1889-09-15 21:00:00 TS 17.2570 -79.3728 main 146 146 P_____________ AL061889 17.2570 -79.3728 TS 50 0 7 294
1889255N16301 1889 23 NA CS NOT_NAMED 1889-09-16 00:00:00 TS 17.4000 -79.7000 50 hurdat_atl main 164 164 O_____________ hurdat_atl AL061889 17.4000 -79.7000 TS 50 0 8 291
1889255N16301 1889 23 NA CS NOT_NAMED 1889-09-16 03:00:00 TS 17.5501 -80.1925 main 201 201 P_____________ AL061889 17.5501 -80.1925 TS 50 0 10 287
1889255N16301 1889 23 NA CS NOT_NAMED 1889-09-16 06:00:00 TS 17.7000 -80.7000 50 hurdat_atl main 249 249 O_____________ hurdat_atl AL061889 17.7000 -80.7000 TS 50 0 9 288
1889255N16301 1889 23 NA CS NOT_NAMED 1889-09-16 09:00:00 TS 17.8346 -81.0853 main 289 287 P_____________ AL061889 17.8346 -81.0853 TS 52 0 8 292
1889255N16301 1889 23 NA CS NOT_NAMED 1889-09-16 12:00:00 TS 18.0000 -81.5000 55 hurdat_atl main 328 328 O_____________ hurdat_atl AL061889 18.0000 -81.5000 TS 55 0 10 293
1889255N16301 1889 23 NA CS NOT_NAMED 1889-09-16 15:00:00 TS 18.2503 -82.0922 main 354 324 P_____________ AL061889 18.2503 -82.0922 TS 57 0 12 294
1889255N16301 1889 23 NA CS NOT_NAMED 1889-09-16 18:00:00 TS 18.5000 -82.7000 60 hurdat_atl main 324 303 O_____________ hurdat_atl AL061889 18.5000 -82.7000 TS 60 0 11 292
1889255N16301 1889 23 NA CS NOT_NAMED 1889-09-16 21:00:00 TS 18.6647 -83.1653 main 304 299 P_____________ AL061889 18.6647 -83.1653 TS 62 0 9 289
1889255N16301 1889 23 NA CS NOT_NAMED 1889-09-17 00:00:00 TS 18.8000 -83.6000 65 hurdat_atl main 302 298 O_____________ hurdat_atl AL061889 18.8000 -83.6000 HU 65 1 9 288
1889255N16301 1889 23 NA CS NOT_NAMED 1889-09-17 03:00:00 TS 18.9575 -84.1000 main 300 297 P_____________ AL061889 18.9575 -84.1000 HU 70 1 10 288
1889255N16301 1889 23 NA CS NOT_NAMED 1889-09-17 06:00:00 TS 19.1000 -84.6000 75 hurdat_atl main 297 254 O_____________ hurdat_atl AL061889 19.1000 -84.6000 HU 75 1 9 286
1889255N16301 1889 23 NA CS NOT_NAMED 1889-09-17 09:00:00 TS 19.2148 -85.0501 main 243 200 P_____________ AL061889 19.2148 -85.0501 HU 80 1 9 283
1889255N16301 1889 23 NA CS NOT_NAMED 1889-09-17 12:00:00 TS 19.3000 -85.5000 85 hurdat_atl main 200 157 O_____________ hurdat_atl AL061889 19.3000 -85.5000 HU 85 2 9 279
1889255N16301 1889 23 NA CS NOT_NAMED 1889-09-17 15:00:00 TS 19.3573 -85.9776 main 147 95 P_____________ AL061889 19.3573 -85.9776 HU 90 2 9 276
1889255N16301 1889 23 NA CS NOT_NAMED 1889-09-17 18:00:00 TS 19.4000 -86.5000 95 hurdat_atl main 95 31 O_____________ hurdat_atl AL061889 19.4000 -86.5000 HU 95 2 11 275
1889255N16301 1889 23 NA CS NOT_NAMED 1889-09-17 21:00:00 TS 19.4576 -87.1074 main 31 0 P_____________ AL061889 19.4576 -87.1074 HU 92 2 11 275
1889255N16301 1889 23 NA NA NOT_NAMED 1889-09-18 00:00:00 TS 19.5000 -87.7000 90 hurdat_atl main 0 0 O_____________ hurdat_atl AL061889 19.5000 -87.7000 HU 90 2 10 273
1889255N16301 1889 23 NA NA NOT_NAMED 1889-09-18 03:00:00 TS 19.5072 -88.1726 main 0 0 P_____________ AL061889 19.5072 -88.1726 HU 82 1 8 270
1889255N16301 1889 23 NA NA NOT_NAMED 1889-09-18 06:00:00 TS 19.5000 -88.6000 75 hurdat_atl main 0 0 O_____________ hurdat_atl AL061889 19.5000 -88.6000 HU 75 1 8 270
1889255N16301 1889 23 NA NA NOT_NAMED 1889-09-18 09:00:00 TS 19.4999 -89.0575 main 0 0 P_____________ AL061889 19.4999 -89.0575 HU 70 1 8 270
1889255N16301 1889 23 NA NA NOT_NAMED 1889-09-18 12:00:00 TS 19.5000 -89.5000 65 hurdat_atl main 0 0 O_____________ hurdat_atl AL061889 19.5000 -89.5000 HU 65 1 8 269
1889255N16301 1889 23 NA NA NOT_NAMED 1889-09-18 15:00:00 TS 19.4923 -89.8926 main 0 0 P_____________ AL061889 19.4923 -89.8926 HU 62 0 8 270
1889255N16301 1889 23 NA NA NOT_NAMED 1889-09-18 18:00:00 TS 19.5000 -90.3000 60 hurdat_atl main 0 0 O_____________ hurdat_atl AL061889 19.5000 -90.3000 TS 60 0 8 273
1889255N16301 1889 23 NA GM NOT_NAMED 1889-09-18 21:00:00 TS 19.5350 -90.7850 main 10 10 P_____________ AL061889 19.5350 -90.7850 TS 65 1 9 276
1889255N16301 1889 23 NA GM NOT_NAMED 1889-09-19 00:00:00 TS 19.6000 -91.3000 70 hurdat_atl main 54 54 O_____________ hurdat_atl AL061889 19.6000 -91.3000 HU 70 1 10 278
1889255N16301 1889 23 NA GM NOT_NAMED 1889-09-19 03:00:00 TS 19.6776 -91.8300 main 94 94 P_____________ AL061889 19.6776 -91.8300 HU 77 1 10 282
1889255N16301 1889 23 NA GM NOT_NAMED 1889-09-19 06:00:00 TS 19.8000 -92.3000 85 hurdat_atl main 131 131 O_____________ hurdat_atl AL061889 19.8000 -92.3000 HU 85 2 8 290
1889255N16301 1889 23 NA GM NOT_NAMED 1889-09-19 09:00:00 TS 19.9624 -92.6600 main 156 156 P_____________ AL061889 19.9624 -92.6600 HU 85 2 7 305
1889255N16301 1889 23 NA GM NOT_NAMED 1889-09-19 12:00:00 TS 20.2000 -92.9000 85 hurdat_atl main 180 180 O_____________ hurdat_atl AL061889 20.2000 -92.9000 HU 85 2 7 328
1889255N16301 1889 23 NA GM NOT_NAMED 1889-09-19 15:00:00 TS 20.5499 -93.0450 main 214 214 P_____________ AL061889 20.5499 -93.0450 HU 85 2 7 345
1889255N16301 1889 23 NA GM NOT_NAMED 1889-09-19 18:00:00 TS 20.9000 -93.1000 85 hurdat_atl main 260 260 O_____________ hurdat_atl AL061889 20.9000 -93.1000 HU 85 2 6 354
1889255N16301 1889 23 NA GM NOT_NAMED 1889-09-19 21:00:00 TS 21.1225 -93.1151 main 278 278 P_____________ AL061889 21.1225 -93.1151 HU 85 2 4 0
1889255N16301 1889 23 NA GM NOT_NAMED 1889-09-20 00:00:00 TS 21.3000 -93.1000 85 hurdat_atl main 284 284 O_____________ hurdat_atl AL061889 21.3000 -93.1000 HU 85 2 4 0
1889255N16301 1889 23 NA GM NOT_NAMED 1889-09-20 03:00:00 TS 21.4925 -93.1000 main 290 290 P_____________ AL061889 21.4925 -93.1000 HU 85 2 4 0
1889255N16301 1889 23 NA GM NOT_NAMED 1889-09-20 06:00:00 TS 21.7000 -93.1000 85 hurdat_atl main 297 297 O_____________ hurdat_atl AL061889 21.7000 -93.1000 HU 85 2 5 357
1889255N16301 1889 23 NA GM NOT_NAMED 1889-09-20 09:00:00 TS 21.9500 -93.1075 main 306 303 P_____________ AL061889 21.9500 -93.1075 HU 85 2 5 2
1889255N16301 1889 23 NA GM NOT_NAMED 1889-09-20 12:00:00 TS 22.2000 -93.1000 85 hurdat_atl main 314 314 O_____________ hurdat_atl AL061889 22.2000 -93.1000 HU 85 2 5 7
1889255N16301 1889 23 NA GM NOT_NAMED 1889-09-20 15:00:00 TS 22.4075 -93.0500 main 323 314 P_____________ AL061889 22.4075 -93.0500 HU 85 2 4 12
1889255N16301 1889 23 NA GM NOT_NAMED 1889-09-20 18:00:00 TS 22.6000 -93.0000 85 hurdat_atl main 325 325 O_____________ hurdat_atl AL061889 22.6000 -93.0000 HU 85 2 4 9
1889255N16301 1889 23 NA GM NOT_NAMED 1889-09-20 21:00:00 TS 22.7925 -92.9925 main 337 337 P_____________ AL061889 22.7925 -92.9925 HU 85 2 4 0
1889255N16301 1889 23 NA GM NOT_NAMED 1889-09-21 00:00:00 TS 23.0000 -93.0000 85 hurdat_atl main 349 349 O_____________ hurdat_atl AL061889 23.0000 -93.0000 HU 85 2 4 0
1889255N16301 1889 23 NA GM NOT_NAMED 1889-09-21 03:00:00 TS 23.2350 -93.0075 main 363 363 P_____________ AL061889 23.2350 -93.0075 HU 85 2 5 2
1889255N16301 1889 23 NA GM NOT_NAMED 1889-09-21 06:00:00 TS 23.5000 -93.0000 85 hurdat_atl main 386 386 O_____________ hurdat_atl AL061889 23.5000 -93.0000 HU 85 2 6 5
1889255N16301 1889 23 NA GM NOT_NAMED 1889-09-21 09:00:00 TS 23.7925 -92.9575 main 409 403 P_____________ AL061889 23.7925 -92.9575 HU 85 2 6 8
1889255N16301 1889 23 NA GM NOT_NAMED 1889-09-21 12:00:00 TS 24.1000 -92.9000 85 hurdat_atl main 428 428 O_____________ hurdat_atl AL061889 24.1000 -92.9000 HU 85 2 5 349
1889255N16301 1889 23 NA GM NOT_NAMED 1889-09-21 15:00:00 TS 24.2917 -93.0592 main 437 430 P_____________ AL061889 24.4075 -92.8500 HU 85 2 5 337
1889255N16301 1889 23 NA GM NOT_NAMED 1889-09-21 18:00:00 TS 24.5400 -93.1000 85 hurdat_atl main 430 421 O____________O hurdat_atl AL061889 24.7000 -92.8000 HU 85 2 23.9000 -94.3000 HU 75 5 357
1889255N16301 1889 23 NA GM NOT_NAMED 1889-09-21 21:00:00 TS 24.7836 -93.0763 main 421 419 P____________P AL061889 24.9275 -92.7648 HU 85 2 24.3877 -93.9030 HU 72 6 12
1889255N16301 1889 23 NA GM NOT_NAMED 1889-09-22 00:00:00 TS 25.1000 -92.9667 85 hurdat_atl main 423 423 O____________O hurdat_atl AL061889 25.2000 -92.7000 HU 85 2 24.9000 -93.5000 HU 70 8 21
1889255N16301 1889 23 NA GM NOT_NAMED 1889-09-22 03:00:00 TS 25.5633 -92.7458 main 429 380 P____________P AL061889 25.6200 -92.5725 HU 85 2 25.4499 -93.0924 HU 67 11 24
1889255N16301 1889 23 NA GM NOT_NAMED 1889-09-22 06:00:00 TS 26.0667 -92.5000 85 hurdat_atl main 370 321 O____________O hurdat_atl AL061889 26.1000 -92.4000 HU 85 2 26.0000 -92.7000 HU 65 11 24
1889255N16301 1889 23 NA GM NOT_NAMED 1889-09-22 09:00:00 TS 26.5382 -92.2597 main 321 258 P____________P AL061889 26.5499 -92.2223 HU 82 1 26.5149 -92.3347 HU 62 10 26
1889255N16301 1889 23 NA GM NOT_NAMED 1889-09-22 12:00:00 TS 27.0000 -92.0000 80 hurdat_atl main 258 205 O____________O hurdat_atl AL061889 27.0000 -92.0000 HU 80 1 27.0000 -92.0000 TS 60 10 27
1889255N16301 1889 23 NA GM NOT_NAMED 1889-09-22 15:00:00 TS 27.4674 -91.7223 main 195 142 P____________P AL061889 27.4649 -91.7299 HU 77 1 27.4723 -91.7071 TS 57 10 31
1889255N16301 1889 23 NA GM NOT_NAMED 1889-09-22 18:00:00 TS 27.9000 -91.4000 75 hurdat_atl main 142 102 O____________O hurdat_atl AL061889 27.9000 -91.4000 HU 75 1 27.9000 -91.4000 TS 55 10 37
1889255N16301 1889 23 NA GM NOT_NAMED 1889-09-22 21:00:00 TS 28.2611 -91.0482 main 89 55 P____________P AL061889 28.2593 -91.0501 HU 72 1 28.2647 -91.0444 TS 52 10 45
1889255N16301 1889 23 NA GM NOT_NAMED 1889-09-23 00:00:00 TS 28.6000 -90.6000 70 hurdat_atl main 55 11 O____________O hurdat_atl AL061889 28.6000 -90.6000 HU 70 1 28.6000 -90.6000 TS 50 11 52
1889255N16301 1889 23 NA GM NOT_NAMED 1889-09-23 03:00:00 TS 28.9702 -90.0196 main 14 14 P____________P AL061889 28.9842 -90.0072 HU 70 1 28.9424 -90.0446 TS 47 13 55
1889255N16301 1889 23 NA GM NOT_NAMED 1889-09-23 04:00:00 TS 29.0862 -89.8124 70 hurdat_atl main 22 0 O____________P hurdat_atl AL061889 29.1000 -89.8000 L HU 70 1 29.0586 -89.8371 TS 46 13 59
1889255N16301 1889 23 NA NA NOT_NAMED 1889-09-23 06:00:00 TS 29.3000 -89.4000 65 hurdat_atl main 0 0 O____________O hurdat_atl AL061889 29.3000 -89.4000 HU 65 1 29.3000 -89.4000 TS 45 13 59
1889255N16301 1889 23 NA GM NOT_NAMED 1889-09-23 09:00:00 TS 29.6424 -88.7588 main 51 11 P____________P AL061889 29.6327 -88.7664 HU 62 0 29.6619 -88.7436 TS 42 15 57
1889255N16301 1889 23 NA GM NOT_NAMED 1889-09-23 12:00:00 TS 30.1000 -88.0000 60 hurdat_atl main 11 9 O____________O hurdat_atl AL061889 30.1000 -88.0000 TS 60 0 30.1000 -88.0000 TS 40 17 54
1889255N16301 1889 23 NA GM NOT_NAMED 1889-09-23 13:00:00 TS 30.2896 -87.7118 60 hurdat_atl main 0 0 O____________P hurdat_atl AL061889 30.3000 -87.7000 L TS 60 0 30.2689 -87.7354 TS 39 19 53
1889255N16301 1889 23 NA NA NOT_NAMED 1889-09-23 15:00:00 TS 30.6744 -87.1335 main 0 0 P____________P AL061889 30.6883 -87.1172 TS 55 0 30.6467 -87.1660 TS 37 20 52
1889255N16301 1889 23 NA NA NOT_NAMED 1889-09-23 18:00:00 TS 31.3000 -86.2000 50 hurdat_atl main 0 0 O____________O hurdat_atl AL061889 31.3000 -86.2000 TS 50 0 31.3000 -86.2000 TS 35 22 52
1889255N16301 1889 23 NA NA NOT_NAMED 1889-09-23 21:00:00 TS 32.0260 -85.0896 main 0 0 P____________P AL061889 32.0253 -85.0909 TS 47 0 32.0274 -85.0871 TS 32 25 52
1889255N16301 1889 23 NA NA NOT_NAMED 1889-09-24 00:00:00 TS 32.8000 -83.9000 45 hurdat_atl main 0 0 O____________O hurdat_atl AL061889 32.8000 -83.9000 TS 45 0 32.8000 -83.9000 TD 30 25 52
1889255N16301 1889 23 NA NA NOT_NAMED 1889-09-24 03:00:00 TS 33.5568 -82.7337 main 0 0 P____________P AL061889 33.5568 -82.7337 TS 45 0 33.5568 -82.7337 TD 27 24 52
1889255N16301 1889 23 NA NA NOT_NAMED 1889-09-24 06:00:00 TS 34.3000 -81.6000 45 hurdat_atl main 0 0 O____________O hurdat_atl AL061889 34.3000 -81.6000 TS 45 0 34.3000 -81.6000 TD 25 24 51
1889255N16301 1889 23 NA NA NOT_NAMED 1889-09-24 09:00:00 TS 35.0520 -80.4976 main 0 0 P____________P AL061889 35.0520 -80.4976 TS 42 0 35.0520 -80.4976 TD 25 22 51
1889255N16301 1889 23 NA NA NOT_NAMED 1889-09-24 12:00:00 TS 35.7000 -79.5000 40 hurdat_atl main 0 0 O____________O hurdat_atl AL061889 35.7000 -79.5000 TS 40 0 35.7000 -79.5000 TD 25 19 54
1889255N16301 1889 23 NA NA NOT_NAMED 1889-09-24 15:00:00 TS 36.1591 -78.6304 main 0 0 P____________P AL061889 36.1591 -78.6304 TS 40 0 36.1591 -78.6304 TD 25 15 58
1889255N16301 1889 23 NA NA NOT_NAMED 1889-09-24 18:00:00 MX 36.5000 -77.9000 40 hurdat_atl main 0 0 O____________O hurdat_atl AL061889 36.5000 -77.9000 TS 40 0 36.5000 -77.9000 EX 25 13 59
1889255N16301 1889 23 NA NA NOT_NAMED 1889-09-24 21:00:00 MX 36.8141 -77.2762 main 0 0 P____________P AL061889 36.8141 -77.2762 TS 40 0 36.8141 -77.2762 EX 27 11 58
1889255N16301 1889 23 NA NA NOT_NAMED 1889-09-25 00:00:00 MX 37.1000 -76.7000 40 hurdat_atl main 0 0 O____________O hurdat_atl AL061889 37.1000 -76.7000 TS 40 0 37.1000 -76.7000 EX 30 11 59
1889255N16301 1889 23 NA NA NOT_NAMED 1889-09-25 03:00:00 MX 37.3769 -76.0786 main 14 0 P____________P AL061889 37.3769 -76.0786 TS 40 0 37.3769 -76.0786 EX 32 12 60
1889255N16301 1889 23 NA NA NOT_NAMED 1889-09-25 06:00:00 MX 37.7000 -75.4000 40 hurdat_atl main 14 14 O____________O hurdat_atl AL061889 37.7000 -75.4000 TS 40 0 37.7000 -75.4000 EX 35 13 58
1889255N16301 1889 23 NA NA NOT_NAMED 1889-09-25 09:00:00 MX 38.0666 -74.6568 main 41 41 P____________P AL061889 38.0666 -74.6568 TS 37 0 38.0666 -74.6568 EX 35 15 54
1889255N16301 1889 23 NA NA NOT_NAMED 1889-09-25 12:00:00 MX 38.6000 -73.8000 35 hurdat_atl main 95 95 O____________O hurdat_atl AL061889 38.6000 -73.8000 TS 35 0 38.6000 -73.8000 EX 35 19 49
1889255N16301 1889 23 NA NA NOT_NAMED 1889-09-25 15:00:00 MX 39.3291 -72.8210 main 127 92 P____________P AL061889 39.3291 -72.8210 TS 35 0 39.3291 -72.8210 EX 35 23 44
1889255N16301 1889 23 NA NA NOT_NAMED 1889-09-25 18:00:00 MX 40.3000 -71.7000 35 hurdat_atl main 94 19 O____________O hurdat_atl AL061889 40.3000 -71.7000 TS 35 0 40.3000 -71.7000 EX 35 28 40
1889255N16301 1889 23 NA NA NOT_NAMED 1889-09-25 21:00:00 MX 41.4444 -70.4553 main 19 0 P____________P AL061889 41.4444 -70.4553 TS 35 0 41.4444 -70.4553 EX 35 32 38
1889255N16301 1889 23 NA NA NOT_NAMED 1889-09-26 00:00:00 ET 42.8000 -69.1000 35 hurdat_atl main 114 23 O____________O hurdat_atl AL061889 42.8000 -69.1000 EX 35 -4 42.8000 -69.1000 EX 35 35 36
1889255N16301 1889 23 NA NA NOT_NAMED 1889-09-26 03:00:00 ET 44.2659 -67.6935 main 19 0 P____________P AL061889 44.2659 -67.6935 EX 35 -4 44.2659 -67.6935 EX 35 37 34
1889255N16301 1889 23 NA NA NOT_NAMED 1889-09-26 06:00:00 ET 45.9000 -66.2000 35 hurdat_atl main 0 0 O____________O hurdat_atl AL061889 45.9000 -66.2000 EX 35 -4 45.9000 -66.2000 EX 35 40 32
1889255N16301 1889 23 NA NA NOT_NAMED 1889-09-26 09:00:00 ET 47.6698 -64.6086 main 7 0 P____________P AL061889 47.6698 -64.6086 EX 35 -4 47.6698 -64.6086 EX 35 42 32
1889255N16301 1889 23 NA NA NOT_NAMED 1889-09-26 12:00:00 ET 49.5000 -62.9000 35 hurdat_atl main 0 O____________O hurdat_atl AL061889 49.5000 -62.9000 EX 35 -4 49.5000 -62.9000 EX 35 43 31

About IBTrACS Database

This database is a web-friendly format of International Best Track Archive for Climate Stewardship (IBTrACS), a global best track data archive curated by NOAA dating back to 1842.

Updated: 2021-11-26